Terminal Aerodrome Forecast
Issued by NWS Amarillo, TX

Home | Current Version | Previous Version | Text Only | Print | Product List | Glossary On
Versions: 1 2 3 4 5 6 7 8 9 10 11 12 13
000
FTUS44 KAMA 111700
TAFAMA
TAF
KAMA 111720Z 1118/1218 19016G25KT P6SM SKC
     FM120300 18011KT P6SM FEW200
     FM121500 20015G25KT P6SM SKC=

USA.gov is the U.S. government's official web portal to all federal, state and local government web resources and services.